createdAt,value
2023-12-09T00:00:28.887Z,46.97
2023-12-09T00:02:55.544Z,47.56
2023-12-09T00:05:22.143Z,47.10
2023-12-09T00:07:48.741Z,47.55
2023-12-09T00:10:15.284Z,47.50
2023-12-09T00:12:41.874Z,47.49
2023-12-09T00:15:08.903Z,47.81
2023-12-09T00:17:36.423Z,47.59
2023-12-09T00:20:06.048Z,47.26
2023-12-09T00:22:32.620Z,47.62
2023-12-09T00:24:59.550Z,47.23
2023-12-09T00:27:26.189Z,47.87
2023-12-09T00:29:52.833Z,47.71
2023-12-09T00:32:19.475Z,47.02
2023-12-09T00:34:46.041Z,47.48
2023-12-09T00:37:12.576Z,46.88
2023-12-09T00:39:39.159Z,48.05
2023-12-09T00:42:05.829Z,47.28
2023-12-09T00:44:32.394Z,47.49
2023-12-09T00:46:58.945Z,47.38
2023-12-09T00:49:25.658Z,47.03
2023-12-09T00:51:52.242Z,47.30
2023-12-09T00:54:18.986Z,47.77
2023-12-09T00:56:45.561Z,46.77
2023-12-09T00:59:12.175Z,47.43
2023-12-09T01:01:38.765Z,47.00
2023-12-09T01:04:07.059Z,46.90
2023-12-09T01:06:33.769Z,47.31
2023-12-09T01:09:00.533Z,46.56
2023-12-09T01:11:27.133Z,47.13
2023-12-09T01:13:54.325Z,46.57
2023-12-09T01:16:20.888Z,46.90
2023-12-09T01:18:47.519Z,46.72
2023-12-09T01:21:14.107Z,47.18
2023-12-09T01:23:41.317Z,47.40
2023-12-09T01:26:08.904Z,47.25
2023-12-09T01:28:35.491Z,46.99
2023-12-09T01:31:02.043Z,46.64
2023-12-09T01:33:28.684Z,46.87
2023-12-09T01:35:55.374Z,47.69
2023-12-09T01:38:22.001Z,47.67
2023-12-09T01:40:55.577Z,47.00
2023-12-09T01:43:23.222Z,47.85
2023-12-09T01:45:52.817Z,47.03
2023-12-09T01:48:20.386Z,47.12
2023-12-09T01:50:47.605Z,46.87
2023-12-09T01:53:16.076Z,46.98
2023-12-09T01:55:42.993Z,47.68
2023-12-09T01:58:11.359Z,46.96
2023-12-09T02:00:41.412Z,48.06
2023-12-09T02:03:08.227Z,47.68
2023-12-09T02:05:34.852Z,48.01
2023-12-09T02:08:01.459Z,47.12
2023-12-09T02:10:28.801Z,46.85
2023-12-09T02:13:20.108Z,46.85
2023-12-09T02:15:55.848Z,47.05
2023-12-09T02:18:24.794Z,47.03
2023-12-09T02:20:51.511Z,47.62
2023-12-09T02:23:18.052Z,46.77
2023-12-09T02:25:45.401Z,46.34
2023-12-09T02:28:32.849Z,46.67
2023-12-09T02:31:14.663Z,47.10
2023-12-09T02:33:44.602Z,46.71
2023-12-09T02:36:13.982Z,46.61
2023-12-09T02:38:42.165Z,46.39
2023-12-09T02:41:09.825Z,46.81
2023-12-09T02:43:37.368Z,47.38
2023-12-09T02:46:03.997Z,46.89
2023-12-09T02:48:30.636Z,47.60
2023-12-09T02:50:57.317Z,46.65
2023-12-09T02:53:23.895Z,47.38
2023-12-09T02:55:50.522Z,47.12
2023-12-09T02:58:17.042Z,47.46
2023-12-09T03:00:44.221Z,47.47
2023-12-09T03:03:10.912Z,46.77
2023-12-09T03:05:37.554Z,47.08
2023-12-09T03:08:04.169Z,46.91
2023-12-09T03:10:30.753Z,46.91
2023-12-09T03:12:57.304Z,46.98
2023-12-09T03:15:23.851Z,47.20
2023-12-09T03:17:50.744Z,47.49
2023-12-09T03:20:19.169Z,46.83
2023-12-09T03:22:45.734Z,47.25
2023-12-09T03:25:12.362Z,47.54
2023-12-09T03:27:38.955Z,46.81
2023-12-09T03:30:06.395Z,46.80
2023-12-09T03:32:32.973Z,47.45
2023-12-09T03:34:59.569Z,46.91
2023-12-09T03:37:27.714Z,47.22
2023-12-09T03:39:54.314Z,46.75
2023-12-09T03:42:20.931Z,46.30
2023-12-09T03:44:47.547Z,46.23
2023-12-09T03:47:21.828Z,46.86
2023-12-09T03:49:52.716Z,47.06
2023-12-09T03:52:19.485Z,47.22
2023-12-09T03:54:46.168Z,46.50
2023-12-09T03:57:14.604Z,46.93
2023-12-09T03:59:41.810Z,46.45
2023-12-09T04:02:08.383Z,46.31
2023-12-09T04:04:39.333Z,46.89
2023-12-09T04:07:05.885Z,46.82
2023-12-09T04:09:32.558Z,46.42
2023-12-09T04:11:59.110Z,46.41
2023-12-09T04:14:26.357Z,47.03
2023-12-09T04:16:52.907Z,47.05
2023-12-09T04:19:19.601Z,46.77
2023-12-09T04:21:46.187Z,47.24
2023-12-09T04:24:12.919Z,47.45
2023-12-09T04:26:39.706Z,47.27
2023-12-09T04:29:07.887Z,46.31
2023-12-09T04:31:34.678Z,46.77
2023-12-09T04:34:01.557Z,47.24
2023-12-09T04:36:28.213Z,47.12
2023-12-09T04:38:54.857Z,47.28
2023-12-09T04:41:21.450Z,47.15
2023-12-09T04:43:47.971Z,46.80
2023-12-09T04:46:14.582Z,47.04
2023-12-09T04:48:41.468Z,46.81
2023-12-09T04:51:08.189Z,46.51
2023-12-09T04:53:35.224Z,46.51
2023-12-09T04:56:02.853Z,46.50
2023-12-09T04:58:29.668Z,46.09
2023-12-09T05:00:56.249Z,46.79
2023-12-09T05:03:22.929Z,46.36
2023-12-09T05:05:49.515Z,45.82
2023-12-09T05:08:16.134Z,46.24
2023-12-09T05:10:42.754Z,46.61
2023-12-09T05:13:09.319Z,47.06
2023-12-09T05:15:35.953Z,47.07
2023-12-09T05:18:03.306Z,46.96
2023-12-09T05:20:31.200Z,47.26
2023-12-09T05:22:57.853Z,46.34
2023-12-09T05:25:24.385Z,46.70
2023-12-09T05:27:50.953Z,47.02
2023-12-09T05:30:17.886Z,46.97
2023-12-09T05:32:44.579Z,46.86
2023-12-09T05:35:11.560Z,46.65
2023-12-09T05:37:38.199Z,47.02
2023-12-09T05:40:05.197Z,47.21
2023-12-09T05:42:32.098Z,46.65
2023-12-09T05:44:59.813Z,46.61
2023-12-09T05:47:26.549Z,47.32
2023-12-09T05:49:53.175Z,47.48
2023-12-09T05:52:19.762Z,46.63
2023-12-09T05:54:46.340Z,47.17
2023-12-09T05:57:12.988Z,46.75
2023-12-09T05:59:39.574Z,46.24
2023-12-09T06:02:06.304Z,46.79
2023-12-09T06:04:33.365Z,47.26
2023-12-09T06:07:00.085Z,46.67
2023-12-09T06:09:26.652Z,46.60
2023-12-09T06:11:53.219Z,47.45
2023-12-09T06:14:19.791Z,46.68
2023-12-09T06:16:46.375Z,46.51
2023-12-09T06:19:12.989Z,46.93
2023-12-09T06:21:39.587Z,46.97
2023-12-09T06:24:06.500Z,46.56
2023-12-09T06:26:33.108Z,47.03
2023-12-09T06:28:59.649Z,46.92
2023-12-09T06:31:26.337Z,46.10
2023-12-09T06:33:53.105Z,46.30
2023-12-09T06:36:19.784Z,46.53
2023-12-09T06:38:46.415Z,46.53
2023-12-09T06:41:13.013Z,46.97
2023-12-09T06:43:39.985Z,46.87
2023-12-09T06:46:06.614Z,47.01
2023-12-09T06:48:33.369Z,46.71
2023-12-09T06:51:00.092Z,46.61
2023-12-09T06:53:26.644Z,47.05
2023-12-09T06:55:53.227Z,47.26
2023-12-09T06:58:19.801Z,47.08
2023-12-09T07:00:47.867Z,47.33
2023-12-09T07:03:14.794Z,47.16
2023-12-09T07:05:41.503Z,47.41
2023-12-09T07:08:10.565Z,46.86
2023-12-09T07:10:37.484Z,46.66
2023-12-09T07:13:05.906Z,47.14
2023-12-09T07:15:32.655Z,47.41
2023-12-09T07:17:59.556Z,46.82
2023-12-09T07:20:26.160Z,47.37
2023-12-09T07:22:52.743Z,47.41
2023-12-09T07:25:19.316Z,46.63
2023-12-09T07:27:45.998Z,46.51
2023-12-09T07:30:12.742Z,46.61
2023-12-09T07:32:39.441Z,46.67
2023-12-09T07:35:06.654Z,46.88
2023-12-09T07:37:33.323Z,47.65
2023-12-09T07:39:59.889Z,46.67
2023-12-09T07:42:26.757Z,47.04
2023-12-09T07:44:53.506Z,46.95
2023-12-09T07:47:20.052Z,48.14
2023-12-09T07:49:46.695Z,47.92
2023-12-09T07:52:13.404Z,47.78
2023-12-09T07:54:39.963Z,46.91
2023-12-09T07:57:06.674Z,46.84
2023-12-09T07:59:33.280Z,47.16
2023-12-09T08:01:59.834Z,47.46
2023-12-09T08:04:26.625Z,46.04
2023-12-09T08:06:55.069Z,46.18
2023-12-09T08:09:22.134Z,45.78
2023-12-09T08:11:51.400Z,46.69
2023-12-09T08:14:19.656Z,46.57
2023-12-09T08:16:46.376Z,46.19
2023-12-09T08:19:13.019Z,46.26
2023-12-09T08:21:39.914Z,45.95
2023-12-09T08:24:06.814Z,45.90
2023-12-09T08:26:33.356Z,45.52
2023-12-09T08:29:01.606Z,45.34
2023-12-09T08:31:28.428Z,45.53
2023-12-09T08:33:55.121Z,45.68
2023-12-09T08:36:21.785Z,45.64
2023-12-09T08:38:48.474Z,45.28
2023-12-09T08:41:15.068Z,45.61
2023-12-09T08:43:41.674Z,45.31
2023-12-09T08:46:08.237Z,45.84
2023-12-09T08:48:35.095Z,45.83
2023-12-09T08:51:01.943Z,45.96
2023-12-09T08:53:28.479Z,45.42
2023-12-09T08:55:55.080Z,45.46
2023-12-09T08:58:21.664Z,46.00
2023-12-09T09:00:52.792Z,46.35
2023-12-09T09:03:19.944Z,46.29
2023-12-09T09:05:46.743Z,45.91
2023-12-09T09:08:13.337Z,46.00
2023-12-09T09:10:39.890Z,45.97
2023-12-09T09:13:06.506Z,45.68
2023-12-09T09:15:33.705Z,46.75
2023-12-09T09:18:00.421Z,46.17
2023-12-09T09:20:27.044Z,46.27
2023-12-09T09:22:53.672Z,46.43
2023-12-09T09:25:20.344Z,45.97
2023-12-09T09:27:49.501Z,46.61
2023-12-09T09:30:17.212Z,46.18
2023-12-09T09:32:43.904Z,46.49
2023-12-09T09:35:10.655Z,46.08
2023-12-09T09:37:37.295Z,46.13
2023-12-09T09:40:05.732Z,45.72
2023-12-09T09:42:43.362Z,46.44
2023-12-09T09:45:15.986Z,46.14
2023-12-09T09:47:44.225Z,45.83
2023-12-09T09:50:14.224Z,46.01
2023-12-09T09:52:42.607Z,45.91
2023-12-09T09:55:10.174Z,46.19
2023-12-09T09:57:37.235Z,45.83
2023-12-09T10:00:14.283Z,45.72
2023-12-09T10:02:45.646Z,45.71
2023-12-09T10:05:14.125Z,45.22
2023-12-09T10:07:40.963Z,45.94
2023-12-09T10:10:08.283Z,45.50
2023-12-09T10:12:35.869Z,45.87
2023-12-09T10:15:04.140Z,45.41
2023-12-09T10:17:32.226Z,45.64
2023-12-09T10:19:59.625Z,46.01
2023-12-09T10:22:27.595Z,45.78
2023-12-09T10:24:55.571Z,46.02
2023-12-09T10:27:23.982Z,46.01
2023-12-09T10:29:51.513Z,46.38
2023-12-09T10:32:18.208Z,45.92
2023-12-09T10:34:44.880Z,46.35
2023-12-09T10:37:13.312Z,46.43
2023-12-09T10:39:44.442Z,46.09
2023-12-09T10:42:11.493Z,46.55
2023-12-09T10:44:38.673Z,46.35
2023-12-09T10:47:05.433Z,46.58
2023-12-09T10:49:32.854Z,46.13
2023-12-09T10:51:59.505Z,46.87
2023-12-09T10:54:26.050Z,46.57
2023-12-09T10:56:53.385Z,46.49
2023-12-09T10:59:20.971Z,46.33
2023-12-09T11:01:48.933Z,47.11
2023-12-09T11:04:16.275Z,46.43
2023-12-09T11:06:46.842Z,46.79
2023-12-09T11:09:15.866Z,46.88
2023-12-09T11:11:43.104Z,45.97
2023-12-09T11:14:12.952Z,46.25
2023-12-09T11:16:43.836Z,46.88
2023-12-09T11:19:17.618Z,46.20
2023-12-09T11:21:47.940Z,46.92
2023-12-09T11:24:16.786Z,46.41
2023-12-09T11:26:48.070Z,46.61
2023-12-09T11:29:18.926Z,46.33
2023-12-09T11:31:47.429Z,47.22
2023-12-09T11:34:18.455Z,46.52
2023-12-09T11:36:47.435Z,46.65
2023-12-09T11:39:18.976Z,46.64
2023-12-09T11:41:46.536Z,47.00
2023-12-09T11:44:13.871Z,46.91
2023-12-09T11:46:40.796Z,47.48
2023-12-09T11:49:08.693Z,46.92
2023-12-09T11:51:36.710Z,47.02
2023-12-09T11:54:05.960Z,47.29
2023-12-09T11:56:33.094Z,47.38
2023-12-09T11:58:59.800Z,47.35
2023-12-09T12:01:28.720Z,47.42
2023-12-09T12:03:55.426Z,47.38
2023-12-09T12:06:23.462Z,47.98
2023-12-09T12:08:52.010Z,47.89
2023-12-09T12:11:21.862Z,48.16
2023-12-09T12:13:49.023Z,48.02
2023-12-09T12:16:15.882Z,47.80
2023-12-09T12:18:42.860Z,48.09
2023-12-09T12:21:09.872Z,48.15
2023-12-09T12:23:36.674Z,48.86
2023-12-09T12:26:03.929Z,48.58
2023-12-09T12:28:30.547Z,48.85
2023-12-09T12:31:02.470Z,48.98
2023-12-09T12:33:33.294Z,48.49
2023-12-09T12:36:02.048Z,48.13
2023-12-09T12:38:28.909Z,48.40
2023-12-09T12:40:57.228Z,47.60
2023-12-09T12:43:24.246Z,47.28
2023-12-09T12:45:52.862Z,47.30
2023-12-09T12:48:21.182Z,46.83
2023-12-09T12:50:50.937Z,46.95
2023-12-09T12:53:21.704Z,46.90
2023-12-09T12:55:49.041Z,47.49
2023-12-09T12:58:15.679Z,46.72
2023-12-09T13:00:42.918Z,47.28
2023-12-09T13:03:09.627Z,47.01
2023-12-09T13:05:36.358Z,46.83
2023-12-09T13:08:03.048Z,46.68
2023-12-09T13:10:29.734Z,46.92
2023-12-09T13:12:56.420Z,46.57
2023-12-09T13:15:23.959Z,46.31
2023-12-09T13:17:50.938Z,46.57
2023-12-09T13:20:17.844Z,47.34
2023-12-09T13:22:46.934Z,48.01
2023-12-09T13:25:15.059Z,48.33
2023-12-09T13:27:42.700Z,48.67
2023-12-09T13:30:10.123Z,48.00
2023-12-09T13:32:37.500Z,48.61
2023-12-09T13:35:05.450Z,48.73
2023-12-09T13:37:32.182Z,48.59
2023-12-09T13:39:59.119Z,48.16
2023-12-09T13:42:25.977Z,48.07
2023-12-09T13:44:53.047Z,48.84
2023-12-09T13:47:20.824Z,48.21
2023-12-09T13:49:47.931Z,48.52
2023-12-09T13:52:16.711Z,48.24
2023-12-09T13:54:44.116Z,48.15
2023-12-09T13:57:10.986Z,48.23
2023-12-09T13:59:37.689Z,48.34
2023-12-09T14:02:04.351Z,47.87
2023-12-09T14:04:31.322Z,47.98
2023-12-09T14:06:58.042Z,48.23
2023-12-09T14:09:24.791Z,47.62
2023-12-09T14:11:51.828Z,47.68
2023-12-09T14:14:18.385Z,47.45
2023-12-09T14:16:45.045Z,47.34
2023-12-09T14:19:12.116Z,47.45
2023-12-09T14:21:39.483Z,46.94
2023-12-09T14:24:06.792Z,46.83
2023-12-09T14:26:35.643Z,46.57
2023-12-09T14:29:02.566Z,46.77
2023-12-09T14:31:29.150Z,46.67
2023-12-09T14:33:55.989Z,47.11
2023-12-09T14:36:23.005Z,46.52
2023-12-09T14:38:49.916Z,46.84
2023-12-09T14:41:16.600Z,46.75
2023-12-09T14:43:44.512Z,46.60
2023-12-09T14:46:12.284Z,46.70
2023-12-09T14:48:39.199Z,46.52
2023-12-09T14:51:06.278Z,46.23
2023-12-09T14:53:34.272Z,46.63
2023-12-09T14:56:01.914Z,46.33
2023-12-09T14:58:29.297Z,46.20
2023-12-09T15:00:56.145Z,46.66
2023-12-09T15:03:23.070Z,46.28
2023-12-09T15:05:49.956Z,46.76
2023-12-09T15:08:16.597Z,46.56
2023-12-09T15:10:43.170Z,46.34
2023-12-09T15:13:09.811Z,46.30
2023-12-09T15:15:36.466Z,46.32
2023-12-09T15:18:03.529Z,46.77
2023-12-09T15:20:30.254Z,46.33
2023-12-09T15:22:57.541Z,46.48
2023-12-09T15:25:24.133Z,46.60
2023-12-09T15:27:50.949Z,46.59
2023-12-09T15:30:19.793Z,46.35
2023-12-09T15:32:46.843Z,46.33
2023-12-09T15:35:13.501Z,46.50
2023-12-09T15:37:40.958Z,46.71
2023-12-09T15:40:10.229Z,46.65
2023-12-09T15:42:37.516Z,46.25
2023-12-09T15:45:05.778Z,46.59
2023-12-09T15:47:32.505Z,46.55
2023-12-09T15:49:59.400Z,46.53
2023-12-09T15:52:26.296Z,45.87
2023-12-09T15:54:53.206Z,46.28
2023-12-09T15:57:20.425Z,46.53
2023-12-09T15:59:47.879Z,46.67
2023-12-09T16:02:14.934Z,46.59
2023-12-09T16:04:42.453Z,46.29
2023-12-09T16:07:09.232Z,46.95
2023-12-09T16:09:40.907Z,46.50
2023-12-09T16:12:11.457Z,46.57
2023-12-09T16:14:38.163Z,46.34
2023-12-09T16:17:04.973Z,46.75
2023-12-09T16:19:31.758Z,46.85
2023-12-09T16:21:58.454Z,46.67
2023-12-09T16:24:28.563Z,47.00
2023-12-09T16:26:56.920Z,47.19
2023-12-09T16:29:24.211Z,47.19
2023-12-09T16:31:51.055Z,47.25
2023-12-09T16:34:17.841Z,47.25
2023-12-09T16:36:44.601Z,47.03
2023-12-09T16:39:13.999Z,46.89
2023-12-09T16:41:41.039Z,47.05
2023-12-09T16:44:10.611Z,46.63
2023-12-09T16:46:39.110Z,46.67
2023-12-09T16:49:05.895Z,46.76
2023-12-09T16:51:32.547Z,46.77
2023-12-09T16:53:59.303Z,46.85
2023-12-09T16:56:26.204Z,46.87
2023-12-09T16:58:53.216Z,47.07
2023-12-09T17:01:19.832Z,47.18
2023-12-09T17:03:47.455Z,47.07
2023-12-09T17:06:14.623Z,47.45
2023-12-09T17:08:41.418Z,47.17
2023-12-09T17:11:08.098Z,47.54
2023-12-09T17:13:34.708Z,47.43
2023-12-09T17:16:01.296Z,47.46
2023-12-09T17:18:28.423Z,47.77
2023-12-09T17:20:55.380Z,47.74
2023-12-09T17:23:22.041Z,47.78
2023-12-09T17:25:48.622Z,47.95
2023-12-09T17:28:15.278Z,47.61
2023-12-09T17:30:41.956Z,47.75
2023-12-09T17:33:09.260Z,47.64
2023-12-09T17:35:35.927Z,47.76
2023-12-09T17:38:02.620Z,48.09
2023-12-09T17:40:29.223Z,48.08
2023-12-09T17:42:55.851Z,48.36
2023-12-09T17:45:22.503Z,48.36
2023-12-09T17:47:49.224Z,47.86
2023-12-09T17:50:16.094Z,48.25
2023-12-09T17:52:42.674Z,47.78
2023-12-09T17:55:09.887Z,48.38
2023-12-09T17:57:36.691Z,48.25
2023-12-09T18:00:04.265Z,47.97
2023-12-09T18:02:31.167Z,48.71
2023-12-09T18:04:57.965Z,48.47
2023-12-09T18:07:24.666Z,48.24
2023-12-09T18:09:51.277Z,48.44
2023-12-09T18:12:17.961Z,48.71
2023-12-09T18:14:44.599Z,48.81
2023-12-09T18:17:11.236Z,48.90
2023-12-09T18:19:37.968Z,48.67
2023-12-09T18:22:04.743Z,48.59
2023-12-09T18:24:31.343Z,48.84
2023-12-09T18:26:58.328Z,48.37
2023-12-09T18:29:25.022Z,48.44
2023-12-09T18:31:51.603Z,48.43
2023-12-09T18:34:18.271Z,48.37
2023-12-09T18:36:45.063Z,48.41
2023-12-09T18:39:11.850Z,48.23
2023-12-09T18:41:38.565Z,48.90
2023-12-09T18:44:06.106Z,48.63
2023-12-09T18:46:32.802Z,48.34
2023-12-09T18:49:00.251Z,49.20
2023-12-09T18:51:26.961Z,48.69
2023-12-09T18:53:53.613Z,48.67
2023-12-09T18:56:23.550Z,49.25
2023-12-09T18:58:50.150Z,49.22
2023-12-09T19:01:16.913Z,48.97
2023-12-09T19:03:43.833Z,48.57
2023-12-09T19:06:11.146Z,49.26
2023-12-09T19:08:38.823Z,48.75
2023-12-09T19:11:05.921Z,49.29
2023-12-09T19:13:32.763Z,49.10
2023-12-09T19:15:59.457Z,48.63
2023-12-09T19:18:26.487Z,48.84
2023-12-09T19:20:53.137Z,48.68
2023-12-09T19:23:19.734Z,49.51
2023-12-09T19:25:46.533Z,48.40
2023-12-09T19:28:13.308Z,48.86
2023-12-09T19:30:39.903Z,49.08
2023-12-09T19:33:06.694Z,49.34
2023-12-09T19:35:33.446Z,48.81
2023-12-09T19:38:00.169Z,49.05
2023-12-09T19:40:26.756Z,49.31
2023-12-09T19:42:55.787Z,48.95
2023-12-09T19:45:22.498Z,48.77
2023-12-09T19:47:49.194Z,49.28
2023-12-09T19:50:15.994Z,48.67
2023-12-09T19:52:42.584Z,48.80
2023-12-09T19:55:09.354Z,49.00
2023-12-09T19:57:35.950Z,49.19
2023-12-09T20:00:02.809Z,48.50
2023-12-09T20:02:29.628Z,49.29
2023-12-09T20:04:56.657Z,48.81
2023-12-09T20:07:23.335Z,48.68
2023-12-09T20:09:50.153Z,49.14
2023-12-09T20:12:17.340Z,48.67
2023-12-09T20:14:43.949Z,48.73
2023-12-09T20:17:10.601Z,48.89
2023-12-09T20:19:38.215Z,48.65
2023-12-09T20:22:05.376Z,49.17
2023-12-09T20:24:32.157Z,49.25
2023-12-09T20:26:58.847Z,48.76
2023-12-09T20:29:25.464Z,48.78
2023-12-09T20:31:52.136Z,49.00
2023-12-09T20:34:19.219Z,48.94
2023-12-09T20:36:46.176Z,49.25
2023-12-09T20:39:12.947Z,48.88
2023-12-09T20:41:39.612Z,49.36
2023-12-09T20:44:06.204Z,49.11
2023-12-09T20:46:32.903Z,49.35
2023-12-09T20:48:59.610Z,49.28
2023-12-09T20:51:26.420Z,49.06
2023-12-09T20:53:53.259Z,48.76
2023-12-09T20:56:20.215Z,48.92
2023-12-09T20:58:47.529Z,49.02
2023-12-09T21:01:14.976Z,48.75
2023-12-09T21:03:42.005Z,48.90
2023-12-09T21:06:11.591Z,49.07
2023-12-09T21:08:39.623Z,48.92
2023-12-09T21:11:06.781Z,49.32
2023-12-09T21:13:33.515Z,49.04
2023-12-09T21:16:00.531Z,49.30
2023-12-09T21:18:27.393Z,48.92
2023-12-09T21:20:54.284Z,48.67
2023-12-09T21:23:20.951Z,49.03
2023-12-09T21:25:48.906Z,48.77
2023-12-09T21:28:15.560Z,49.10
2023-12-09T21:30:42.977Z,48.65
2023-12-09T21:33:09.905Z,48.93
2023-12-09T21:35:36.576Z,48.65
2023-12-09T21:38:03.954Z,48.83
2023-12-09T21:40:30.597Z,49.25
2023-12-09T21:42:57.219Z,48.61
2023-12-09T21:45:23.954Z,48.79
2023-12-09T21:47:55.015Z,48.92
2023-12-09T21:50:22.502Z,48.76
2023-12-09T21:52:49.476Z,48.73
2023-12-09T21:55:17.062Z,48.73
2023-12-09T21:57:43.927Z,48.48
2023-12-09T22:00:11.061Z,49.05
2023-12-09T22:02:37.803Z,48.74
2023-12-09T22:05:04.760Z,48.87
2023-12-09T22:07:31.404Z,49.15
2023-12-09T22:09:57.979Z,48.68
2023-12-09T22:12:24.701Z,49.04
2023-12-09T22:14:51.393Z,48.56
2023-12-09T22:17:18.105Z,48.96
2023-12-09T22:19:44.766Z,49.48
2023-12-09T22:22:11.369Z,49.38
2023-12-09T22:24:38.118Z,49.14
2023-12-09T22:27:05.452Z,49.26
2023-12-09T22:29:34.660Z,49.08
2023-12-09T22:32:01.481Z,48.92
2023-12-09T22:34:28.958Z,48.96
2023-12-09T22:36:55.725Z,49.09
2023-12-09T22:39:22.514Z,48.73
2023-12-09T22:41:49.227Z,49.29
2023-12-09T22:44:15.830Z,49.05
2023-12-09T22:46:43.738Z,49.17
2023-12-09T22:49:10.524Z,48.81
2023-12-09T22:51:37.492Z,49.29
2023-12-09T22:54:04.425Z,48.66
2023-12-09T22:56:31.181Z,48.85
2023-12-09T22:58:59.211Z,49.14
2023-12-09T23:01:27.703Z,48.56
2023-12-09T23:03:54.917Z,48.65
2023-12-09T23:06:21.839Z,48.75
2023-12-09T23:08:48.696Z,48.93
2023-12-09T23:11:15.541Z,49.01
2023-12-09T23:13:42.229Z,49.38
2023-12-09T23:16:10.735Z,48.64
2023-12-09T23:18:41.284Z,49.59
2023-12-09T23:21:08.265Z,48.79
2023-12-09T23:23:35.164Z,48.83
2023-12-09T23:26:02.095Z,48.73
2023-12-09T23:28:28.837Z,49.29
2023-12-09T23:30:55.612Z,49.26
2023-12-09T23:33:22.419Z,48.75
2023-12-09T23:35:49.576Z,49.08
2023-12-09T23:38:16.672Z,48.97
2023-12-09T23:40:43.684Z,48.48
2023-12-09T23:43:10.435Z,49.18
2023-12-09T23:45:38.193Z,49.21
2023-12-09T23:48:05.805Z,48.90
2023-12-09T23:50:32.867Z,48.92
2023-12-09T23:52:59.810Z,49.59
2023-12-09T23:55:26.599Z,49.33
2023-12-09T23:57:53.212Z,49.28
